Time;durP1;ratioP1;P1;durP2;ratioP2;P2;SDS_P1;SDS_P2;PMS_P1;PMS_P2;Temp;Humidity;BMP_temperature;BMP_pressure;BME280_temperature;BME280_humidity;BME280_pressure;Samples;Min_cycle;Max_cycle;Signal;HPM_P1;HPM_P2
2021/04/21 04:54:35;;;;;;;;;;;;;;;4.09;100.00;97455.26;1829279;76;20688;-62
2021/04/21 04:57:05;;;;;;;;;;;;;;;4.37;100.00;97453.05;1844830;77;20234;-63
2021/04/21 04:59:33;;;;;;;;;;;;;;;4.57;100.00;97448.97;1839163;76;20394;-63
2021/04/21 05:02:01;;;;;;;;;;;;;;;4.76;100.00;97454.50;1834718;76;20567;-64
2021/04/21 05:04:39;;;;;;;;;;;;;;;4.90;100.00;97448.68;1819302;77;20600;-66
2021/04/21 05:07:07;;;;;;;;;;;;;;;5.03;99.90;97458.95;1826598;76;21871;-64
2021/04/21 05:09:43;;;;;;;;;;;;;;;5.16;99.47;97458.02;1832352;76;20569;-63
2021/04/21 05:12:13;;;;;;;;;;;;;;;5.27;99.16;97466.40;1839764;75;20514;-63
2021/04/21 05:14:45;;;;;;;;;;;;;;;5.36;98.39;97461.98;1828742;76;20594;-63
2021/04/21 05:17:32;;;;;;;;;;;;;;;5.44;97.27;97459.59;1829688;76;20746;-63
2021/04/21 05:20:28;;;;;;;;;;;;;;;5.50;97.07;97464.72;1834203;77;22063;-64
2021/04/21 05:23:19;;;;;;;;;;;;;;;5.56;96.73;97464.34;1827630;76;20505;-64
2021/04/21 05:26:07;;;;;;;;;;;;;;;5.60;96.81;97460.30;1823524;76;20483;-62
2021/04/21 05:29:00;;;;;;;;;;;;;;;5.64;96.98;97454.13;1834385;76;20990;-65
2021/04/21 05:32:05;;;;;;;;;;;;;;;5.74;96.94;97460.42;1836176;76;20582;-64
2021/04/21 05:34:51;;;;;;;;;;;;;;;5.88;97.21;97461.87;1788214;76;21373;-62
2021/04/21 05:37:47;;;;;;;;;;;;;;;6.09;95.85;97464.48;1825352;76;20494;-64
2021/04/21 05:40:54;;;;;;;;;;;;;;;6.30;95.33;97463.67;1831678;76;20491;-73
2021/04/21 05:43:26;;;;;;;;;;;;;;;6.52;93.68;97473.36;1827872;76;20378;-63
2021/04/21 05:46:14;;;;;;;;;;;;;;;6.70;91.10;97469.08;1830328;76;20584;-64
2021/04/21 05:51:43;;;;;;;;;;;;;;;7.04;89.45;97469.58;1883462;74;20391;-62
2021/04/21 05:54:38;;;;;;;;;;;;;;;7.26;89.57;97475.80;1879057;74;20581;-62
2021/04/21 05:57:31;;;;;;;;;;;;;;;7.44;89.57;97471.71;1876283;74;20314;-65
2021/04/21 06:00:22;;;;;;;;;;;;;;;7.60;89.33;97471.50;1876197;74;20457;-68
2021/04/21 06:02:49;;;;;;;;;;;;;;;7.78;88.85;97474.47;1878016;74;21922;-67
2021/04/21 06:05:20;;;;;;;;;;;;;;;7.96;88.67;97474.78;1879345;74;20542;-67
2021/04/21 06:07:49;;;;;;;;;;;;;;;8.11;88.57;97478.98;1875586;74;20537;-64
2021/04/21 06:10:23;;;;;;;;;;;;;;;8.24;86.83;97479.48;1881263;74;20326;-68
2021/04/21 06:12:53;;;;;;;;;;;;;;;8.37;85.63;97474.99;1881058;74;20739;-66
2021/04/21 06:15:25;;;;;;;;;;;;;;;8.47;84.84;97483.82;1879871;74;22426;-64
2021/04/21 06:17:59;;;;;;;;;;;;;;;8.56;84.89;97484.23;1880967;74;20468;-68
2021/04/21 06:20:32;;;;;;;;;;;;;;;8.60;85.46;97484.81;1868066;74;20288;-67
2021/04/21 06:23:07;;;;;;;;;;;;;;;8.63;86.15;97484.06;1879241;74;20756;-67
2021/04/21 06:25:37;;;;;;;;;;;;;;;8.65;87.04;97480.67;1880090;74;20665;-64
2021/04/21 06:28:14;;;;;;;;;;;;;;;8.66;87.92;97479.13;1878683;74;21958;-68
2021/04/21 06:30:43;;;;;;;;;;;;;;;8.72;88.09;97482.10;1874893;74;20479;-65
2021/04/21 06:33:11;;;;;;;;;;;;;;;8.79;87.32;97484.04;1877103;74;20786;-65
2021/04/21 06:35:40;;;;;;;;;;;;;;;8.87;87.29;97488.88;1878774;74;21016;-64
2021/04/21 06:38:08;;;;;;;;;;;;;;;8.95;87.36;97488.48;1887191;74;20580;-64
2021/04/21 06:40:37;;;;;;;;;;;;;;;9.04;86.64;97486.77;1878432;74;21729;-66
2021/04/21 06:43:05;;;;;;;;;;;;;;;9.16;86.08;97486.14;1876536;74;20271;-68
2021/04/21 06:45:35;;;;;;;;;;;;;;;9.28;85.83;97484.22;1881873;74;20311;-69
2021/04/21 06:48:05;;;;;;;;;;;;;;;9.42;82.95;97482.83;1889467;74;20910;-67
2021/04/21 06:50:34;;;;;;;;;;;;;;;9.58;81.47;97484.58;1864289;74;20590;-64
2021/04/21 06:53:07;;;;;;;;;;;;;;;9.75;80.34;97485.31;1851303;75;21968;-65
2021/04/21 06:55:35;;;;;;;;;;;;;;;9.91;77.90;97481.03;1849977;74;20592;-69
2021/04/21 06:58:17;;;;;;;;;;;;;;;10.13;74.45;97483.10;1836372;75;20621;-67
2021/04/21 07:00:45;;;;;;;;;;;;;;;10.36;73.11;97482.55;1879106;74;20586;-67
2021/04/21 07:03:17;;;;;;;;;;;;;;;10.63;71.27;97477.25;1885695;74;20846;-64
2021/04/21 07:05:46;;;;;;;;;;;;;;;10.90;70.12;97474.81;1893901;74;21911;-65
2021/04/21 07:08:29;;;;;;;;;;;;;;;11.17;68.59;97478.66;1886227;74;20281;-67
2021/04/21 07:11:00;;;;;;;;;;;;;;;11.40;66.30;97472.72;1889436;74;20317;-64
2021/04/21 07:13:52;;;;;;;;;;;;;;;11.58;65.42;97477.55;1888511;74;20546;-65
2021/04/21 07:16:26;;;;;;;;;;;;;;;11.69;64.84;97472.05;1879305;74;20954;-63
2021/04/21 07:19:00;;;;;;;;;;;;;;;11.78;61.53;97478.17;1890948;74;21903;-66
2021/04/21 07:21:29;;;;;;;;;;;;;;;11.86;58.70;97481.62;1890108;74;20564;-66
2021/04/21 07:23:59;;;;;;;;;;;;;;;11.90;59.96;97474.77;1886856;74;20490;-67
2021/04/21 07:26:30;;;;;;;;;;;;;;;12.00;61.14;97479.55;1888430;74;20602;-65
2021/04/21 07:28:58;;;;;;;;;;;;;;;12.13;60.00;97482.20;1895609;74;20503;-62
2021/04/21 07:31:27;;;;;;;;;;;;;;;12.30;59.19;97481.45;1892672;74;21964;-68
2021/04/21 07:33:58;;;;;;;;;;;;;;;12.47;57.92;97482.51;1880819;74;20285;-66
2021/04/21 07:36:26;;;;;;;;;;;;;;;12.55;56.92;97488.58;1893696;74;20575;-66
2021/04/21 07:39:05;;;;;;;;;;;;;;;12.60;56.40;97487.80;1897078;74;20520;-65
2021/04/21 07:41:51;;;;;;;;;;;;;;;12.65;56.52;97487.27;1885685;74;20606;-66
2021/04/21 07:44:55;;;;;;;;;;;;;;;12.68;55.90;97483.33;1887146;74;22668;-64
2021/04/21 07:47:25;;;;;;;;;;;;;;;12.72;56.42;97492.28;1883702;74;20555;-66
2021/04/21 07:49:56;;;;;;;;;;;;;;;12.73;56.15;97489.38;1881948;74;20576;-64
2021/04/21 07:52:26;;;;;;;;;;;;;;;12.75;56.89;97495.16;1877657;74;20315;-64
2021/04/21 07:55:18;;;;;;;;;;;;;;;12.80;56.75;97496.50;1831081;76;20765;-66
2021/04/21 07:58:03;;;;;;;;;;;;;;;12.82;56.58;97494.36;1869489;74;21413;-67
2021/04/21 08:00:33;;;;;;;;;;;;;;;12.83;56.17;97497.80;1868122;75;20579;-64
2021/04/21 08:03:04;;;;;;;;;;;;;;;12.75;56.11;97493.08;1864986;75;20588;-61
2021/04/21 08:05:52;;;;;;;;;;;;;;;12.68;56.11;97493.87;1866846;75;20587;-64
2021/04/21 08:08:29;;;;;;;;;;;;;;;12.59;55.62;97498.88;1863179;74;20705;-69
2021/04/21 08:10:57;;;;;;;;;;;;;;;12.53;55.57;97492.79;1856632;75;21821;-63
2021/04/21 08:13:50;;;;;;;;;;;;;;;12.51;55.66;97490.96;1829712;76;20301;-65
2021/04/21 08:16:23;;;;;;;;;;;;;;;12.53;56.02;97488.83;1880969;74;20469;-69
2021/04/21 08:18:51;;;;;;;;;;;;;;;12.58;55.54;97487.27;1876326;74;20587;-65
2021/04/21 08:21:39;;;;;;;;;;;;;;;12.63;55.84;97481.98;1877584;74;20958;-67
2021/04/21 08:24:13;;;;;;;;;;;;;;;12.66;55.73;97483.58;1889239;74;22400;-64
2021/04/21 08:26:43;;;;;;;;;;;;;;;12.70;56.07;97479.88;1825670;77;20217;-66
2021/04/21 08:29:12;;;;;;;;;;;;;;;12.76;56.07;97480.13;1875399;74;20630;-65
2021/04/21 08:31:45;;;;;;;;;;;;;;;12.84;55.24;97474.33;1894486;74;20474;-65
2021/04/21 08:34:14;;;;;;;;;;;;;;;12.91;54.96;97473.53;1893711;74;20641;-68
2021/04/21 08:36:42;;;;;;;;;;;;;;;12.98;55.08;97467.45;1879381;74;22262;-66
2021/04/21 08:39:10;;;;;;;;;;;;;;;13.07;54.22;97469.02;1870674;74;20422;-66
2021/04/21 08:41:39;;;;;;;;;;;;;;;13.17;54.44;97467.72;1876911;74;20395;-66
2021/04/21 08:44:07;;;;;;;;;;;;;;;13.34;54.14;97468.19;1875424;74;20600;-63
2021/04/21 08:46:37;;;;;;;;;;;;;;;13.49;54.98;97467.34;1880089;74;20835;-66
2021/04/21 08:49:06;;;;;;;;;;;;;;;13.63;53.08;97465.17;1879253;74;22335;-66
2021/04/21 08:51:34;;;;;;;;;;;;;;;13.76;51.82;97457.19;1854903;74;20400;-66
2021/04/21 08:54:09;;;;;;;;;;;;;;;13.88;50.68;97465.59;1863576;74;20440;-69
2021/04/21 08:56:37;;;;;;;;;;;;;;;14.01;51.64;97464.20;1873098;74;20221;-67
2021/04/21 08:59:07;;;;;;;;;;;;;;;14.17;51.93;97457.77;1853804;75;20645;-66
2021/04/21 09:01:34;;;;;;;;;;;;;;;14.36;50.02;97456.03;1885322;74;21825;-66
2021/04/21 09:04:03;;;;;;;;;;;;;;;14.48;50.24;97458.34;1862594;74;20576;-66
2021/04/21 09:06:32;;;;;;;;;;;;;;;14.55;49.78;97452.77;1903211;74;20575;-64
2021/04/21 09:09:00;;;;;;;;;;;;;;;14.58;48.48;97456.16;1889848;74;20427;-68
2021/04/21 09:11:29;;;;;;;;;;;;;;;14.58;48.57;97456.16;1839439;76;20841;-67
2021/04/21 09:17:07;;;;;;;;;;;;;;;14.58;49.05;97450.34;1857628;74;20688;-68
2021/04/21 09:19:37;;;;;;;;;;;;;;;14.58;49.70;97446.38;1819169;76;20827;-66
2021/04/21 09:22:09;;;;;;;;;;;;;;;14.71;49.25;97447.58;1824144;76;24396;-66
2021/04/21 09:24:38;;;;;;;;;;;;;;;14.84;49.31;97445.60;1829711;77;20629;-67
2021/04/21 09:30:28;;;;;;;;;;;;;;;15.43;50.40;97440.48;1866445;75;20589;-66
2021/04/21 09:32:57;;;;;;;;;;;;;;;15.57;48.07;97435.56;1829104;76;20736;-64
2021/04/21 09:35:34;;;;;;;;;;;;;;;15.71;48.65;97440.95;1833854;76;22018;-65
2021/04/21 09:38:08;;;;;;;;;;;;;;;15.91;49.04;97439.92;1814869;77;20531;-64
2021/04/21 09:40:44;;;;;;;;;;;;;;;16.04;47.55;97444.50;1816866;77;20283;-63
2021/04/21 09:43:16;;;;;;;;;;;;;;;16.09;47.86;97445.74;1826743;76;20474;-66
2021/04/21 09:45:47;;;;;;;;;;;;;;;16.08;47.84;97437.53;1825278;76;20707;-64
2021/04/21 09:48:27;;;;;;;;;;;;;;;15.74;49.02;97439.61;1808426;77;21995;-65
2021/04/21 09:51:03;;;;;;;;;;;;;;;15.34;49.28;97450.14;1778322;78;20582;-63
2021/04/21 09:53:35;;;;;;;;;;;;;;;14.95;50.29;97442.34;1766476;79;20625;-62
2021/04/21 09:56:11;;;;;;;;;;;;;;;14.67;51.28;97448.69;1758826;79;20485;-64
2021/04/21 09:58:47;;;;;;;;;;;;;;;14.48;51.79;97453.05;1758498;79;20465;-65
2021/04/21 10:01:35;;;;;;;;;;;;;;;14.33;52.94;97448.67;1765734;79;21854;-65
2021/04/21 10:04:15;;;;;;;;;;;;;;;14.17;53.13;97448.52;1763215;79;20491;-70
2021/04/21 10:06:53;;;;;;;;;;;;;;;14.01;53.99;97461.55;1770692;79;20547;-63
2021/04/21 10:09:25;;;;;;;;;;;;;;;13.83;54.16;97463.52;1771269;79;20602;-64
2021/04/21 10:12:13;;;;;;;;;;;;;;;13.69;55.09;97476.50;1766522;79;20586;-61
2021/04/21 10:14:42;;;;;;;;;;;;;;;13.42;54.53;97502.48;1771021;79;21305;-67
2021/04/21 10:17:09;;;;;;;;;;;;;;;12.82;55.04;97498.88;1770599;79;20499;-67
2021/04/21 10:19:39;;;;;;;;;;;;;;;12.30;55.94;97496.47;1761367;79;20480;-65
2021/04/21 10:22:07;;;;;;;;;;;;;;;11.95;58.70;97497.20;1766703;79;20502;-65
2021/04/21 10:24:34;;;;;;;;;;;;;;;11.61;59.36;97483.59;1760528;79;20481;-64
2021/04/21 10:27:14;;;;;;;;;;;;;;;11.30;61.08;97479.53;1820048;77;21827;-64
2021/04/21 10:29:42;;;;;;;;;;;;;;;11.09;64.13;97484.42;1798572;78;20539;-66
2021/04/21 10:32:10;;;;;;;;;;;;;;;10.90;66.32;97478.76;1795683;78;20577;-64
2021/04/21 10:34:38;;;;;;;;;;;;;;;10.84;69.29;97477.66;1777060;76;20576;-62
2021/04/21 10:37:06;;;;;;;;;;;;;;;10.79;68.75;97485.53;1801297;78;20573;-62
2021/04/21 10:39:35;;;;;;;;;;;;;;;10.79;69.39;97495.52;1776030;78;22378;-61
2021/04/21 10:42:09;;;;;;;;;;;;;;;10.78;69.75;97501.02;1802747;78;20161;-65
2021/04/21 10:44:38;;;;;;;;;;;;;;;10.79;69.79;97498.67;1802673;78;20633;-63
2021/04/21 10:47:08;;;;;;;;;;;;;;;10.87;69.70;97506.09;1806471;77;20539;-65
2021/04/21 10:49:52;;;;;;;;;;;;;;;10.95;71.25;97518.74;1793289;77;20586;-64
2021/04/21 10:52:28;;;;;;;;;;;;;;;11.00;72.05;97521.95;1803185;76;22547;-62
2021/04/21 10:55:04;;;;;;;;;;;;;;;11.04;72.56;97529.59;1809501;76;20584;-65
2021/04/21 10:57:34;;;;;;;;;;;;;;;11.06;72.01;97536.72;1751537;79;20586;-63
2021/04/21 11:00:32;;;;;;;;;;;;;;;11.10;71.70;97540.41;1747638;79;20625;-62
2021/04/21 11:03:25;;;;;;;;;;;;;;;11.15;72.69;97539.16;1799381;78;20584;-65
2021/04/21 11:05:57;;;;;;;;;;;;;;;11.21;69.27;97537.62;1787206;78;22076;-64
2021/04/21 11:08:26;;;;;;;;;;;;;;;11.26;69.49;97548.16;1758253;78;20463;-64
2021/04/21 11:11:04;;;;;;;;;;;;;;;11.33;70.44;97547.94;1794729;78;20593;-68
2021/04/21 11:13:37;;;;;;;;;;;;;;;11.40;71.46;97552.45;1806097;77;20481;-65
2021/04/21 11:16:08;;;;;;;;;;;;;;;11.48;70.57;97549.34;1798011;77;20631;-67
2021/04/21 11:18:38;;;;;;;;;;;;;;;11.56;70.53;97551.50;1792055;78;22369;-67
2021/04/21 11:21:08;;;;;;;;;;;;;;;11.64;68.06;97560.23;1794943;78;20578;-69
2021/04/21 11:23:59;;;;;;;;;;;;;;;11.72;66.02;97555.80;1805918;77;20213;-68
2021/04/21 11:26:35;;;;;;;;;;;;;;;11.77;64.72;97558.20;1807148;77;20548;-70
2021/04/21 11:29:22;;;;;;;;;;;;;;;11.73;63.62;97542.91;1809578;77;20605;-66
2021/04/21 11:31:53;;;;;;;;;;;;;;;11.70;63.75;97549.19;1802043;78;22421;-64
2021/04/21 11:34:35;;;;;;;;;;;;;;;11.54;67.07;97548.84;1810710;76;20620;-67
2021/04/21 11:37:16;;;;;;;;;;;;;;;11.21;66.69;97545.50;1803742;78;20644;-65
2021/04/21 11:39:56;;;;;;;;;;;;;;;10.95;69.54;97543.20;1788986;77;20207;-66
2021/04/21 11:42:41;;;;;;;;;;;;;;;10.82;70.05;97537.06;1786582;77;20826;-65
2021/04/21 11:45:16;;;;;;;;;;;;;;;10.80;71.18;97531.80;1791850;78;22033;-69
2021/04/21 11:47:56;;;;;;;;;;;;;;;10.88;70.95;97522.91;1755121;78;20613;-63
2021/04/21 11:50:27;;;;;;;;;;;;;;;11.05;71.04;97520.14;1791851;78;20560;-65
2021/04/21 11:52:57;;;;;;;;;;;;;;;11.22;70.15;97510.27;1803331;78;20659;-63
2021/04/21 11:55:33;;;;;;;;;;;;;;;11.42;75.00;97506.16;1801344;78;20856;-64
2021/04/21 11:58:23;;;;;;;;;;;;;;;11.64;78.81;97498.89;1764637;79;21962;-66
2021/04/21 12:01:00;;;;;;;;;;;;;;;11.90;79.16;97506.38;1773577;79;20641;-70
2021/04/21 12:03:39;;;;;;;;;;;;;;;12.23;75.94;97503.84;1757283;79;20329;-65
2021/04/21 12:06:17;;;;;;;;;;;;;;;12.55;71.87;97501.75;1748850;78;20238;-63
2021/04/21 12:08:47;;;;;;;;;;;;;;;12.82;68.34;97504.91;1788558;77;20774;-64
2021/04/21 12:11:24;;;;;;;;;;;;;;;13.07;68.11;97504.11;1801209;78;22053;-67
2021/04/21 12:13:52;;;;;;;;;;;;;;;13.26;66.39;97499.08;1779892;77;20808;-67
2021/04/21 12:16:24;;;;;;;;;;;;;;;13.42;65.05;97496.67;1790107;78;20492;-67
2021/04/21 12:18:53;;;;;;;;;;;;;;;13.56;65.20;97483.16;1800308;77;20500;-64
2021/04/21 12:21:25;;;;;;;;;;;;;;;13.70;62.88;97486.00;1769856;78;20688;-66
2021/04/21 12:23:55;;;;;;;;;;;;;;;13.83;63.51;97475.41;1799314;77;21882;-68
2021/04/21 12:26:25;;;;;;;;;;;;;;;13.96;61.14;97478.77;1787641;78;20492;-66
2021/04/21 12:29:02;;;;;;;;;;;;;;;14.02;61.10;97477.14;1808388;78;20213;-66
2021/04/21 12:31:31;;;;;;;;;;;;;;;14.05;60.02;97476.58;1803121;78;20626;-65
2021/04/21 12:34:03;;;;;;;;;;;;;;;14.05;58.74;97474.47;1814723;77;20780;-68
2021/04/21 12:36:36;;;;;;;;;;;;;;;14.06;59.55;97472.09;1806638;77;21820;-64
2021/04/21 12:39:10;;;;;;;;;;;;;;;14.11;59.64;97469.97;1801200;76;20862;-65
2021/04/21 12:41:40;;;;;;;;;;;;;;;14.15;60.26;97472.30;1798343;78;20572;-67
2021/04/21 12:44:22;;;;;;;;;;;;;;;14.16;58.99;97471.24;1798402;77;20777;-63
2021/04/21 12:46:51;;;;;;;;;;;;;;;14.15;57.60;97469.13;1796126;77;20484;-65
2021/04/21 12:49:35;;;;;;;;;;;;;;;14.15;57.33;97469.66;1789910;77;21996;-66
2021/04/21 12:52:08;;;;;;;;;;;;;;;14.12;57.26;97460.98;1787646;78;20415;-65
2021/04/21 12:54:41;;;;;;;;;;;;;;;14.08;56.13;97469.97;1795819;78;20413;-67
2021/04/21 12:57:09;;;;;;;;;;;;;;;14.04;54.37;97462.34;1801206;78;20453;-64
2021/04/21 12:59:46;;;;;;;;;;;;;;;14.04;53.45;97457.84;1796017;77;20655;-63
2021/04/21 13:02:16;;;;;;;;;;;;;;;14.07;54.98;97453.85;1794621;78;20747;-62
2021/04/21 13:04:46;;;;;;;;;;;;;;;14.14;54.35;97454.86;1788706;78;20611;-62
2021/04/21 13:07:18;;;;;;;;;;;;;;;14.28;53.84;97455.83;1765289;78;20545;-65
2021/04/21 13:09:47;;;;;;;;;;;;;;;14.39;53.59;97453.41;1795244;78;20537;-62
2021/04/21 13:12:20;;;;;;;;;;;;;;;14.48;53.63;97448.33;1799951;76;20766;-64
2021/04/21 13:14:50;;;;;;;;;;;;;;;14.58;53.00;97447.70;1806424;77;20992;-64
2021/04/21 13:17:18;;;;;;;;;;;;;;;14.68;52.86;97450.80;1788086;78;20457;-65
2021/04/21 13:19:54;;;;;;;;;;;;;;;14.78;52.98;97436.14;1785364;78;20215;-66
2021/04/21 13:22:26;;;;;;;;;;;;;;;14.87;52.30;97439.77;1758538;79;20850;-65
2021/04/21 13:24:54;;;;;;;;;;;;;;;14.95;51.86;97441.80;1776586;78;20559;-64
2021/04/21 13:27:34;;;;;;;;;;;;;;;15.00;52.27;97436.98;1751197;78;22044;-67
2021/04/21 13:30:11;;;;;;;;;;;;;;;15.02;51.39;97436.97;1803858;78;20662;-66
2021/04/21 13:32:47;;;;;;;;;;;;;;;15.01;51.04;97434.59;1801501;78;20476;-67
2021/04/21 13:35:18;;;;;;;;;;;;;;;15.00;51.57;97424.55;1795568;77;20465;-66
2021/04/21 13:37:49;;;;;;;;;;;;;;;15.00;50.26;97427.72;1802803;77;20488;-69
2021/04/21 13:40:19;;;;;;;;;;;;;;;15.01;50.80;97429.30;1794760;77;21784;-65
2021/04/21 13:42:48;;;;;;;;;;;;;;;15.06;49.08;97419.98;1795411;78;20589;-68
2021/04/21 13:45:18;;;;;;;;;;;;;;;15.13;49.77;97421.22;1795586;78;20390;-68
2021/04/21 13:47:47;;;;;;;;;;;;;;;15.29;50.32;97423.17;1762370;78;20587;-69
2021/04/21 13:50:16;;;;;;;;;;;;;;;15.44;48.99;97416.38;1792098;77;20604;-68
2021/04/21 13:52:44;;;;;;;;;;;;;;;15.58;49.53;97419.14;1800114;78;21169;-67
2021/04/21 13:55:13;;;;;;;;;;;;;;;15.72;48.62;97425.31;1805421;76;20477;-63
2021/04/21 13:57:41;;;;;;;;;;;;;;;15.86;47.62;97424.06;1803057;78;20598;-64
2021/04/21 14:00:10;;;;;;;;;;;;;;;15.93;47.89;97416.55;1802397;78;20522;-65
2021/04/21 14:02:42;;;;;;;;;;;;;;;16.02;47.11;97420.13;1794694;78;20648;-65
2021/04/21 14:05:57;;;;;;;;;;;;;;;16.10;46.34;97421.34;1807383;77;22053;-66
2021/04/21 14:08:26;;;;;;;;;;;;;;;16.21;47.29;97424.11;1804638;77;20474;-67
2021/04/21 14:10:54;;;;;;;;;;;;;;;16.32;46.05;97422.87;1826329;77;20573;-66
2021/04/21 14:13:22;;;;;;;;;;;;;;;16.37;45.90;97421.45;1788869;77;20546;-65
2021/04/21 14:15:50;;;;;;;;;;;;;;;16.45;45.96;97420.80;1800412;76;20542;-61
2021/04/21 14:18:18;;;;;;;;;;;;;;;16.57;45.82;97419.78;1785276;78;21766;-62
2021/04/21 14:20:46;;;;;;;;;;;;;;;16.66;44.25;97421.27;1791237;78;20728;-65
2021/04/21 14:23:14;;;;;;;;;;;;;;;16.63;44.28;97418.68;1798010;78;20765;-65
2021/04/21 14:25:42;;;;;;;;;;;;;;;16.61;44.44;97422.16;1805697;77;20551;-62
2021/04/21 14:28:10;;;;;;;;;;;;;;;16.64;44.44;97421.56;1786558;77;20591;-64
2021/04/21 14:30:38;;;;;;;;;;;;;;;16.67;44.45;97426.30;1762990;78;21865;-66
2021/04/21 14:33:06;;;;;;;;;;;;;;;16.77;44.74;97424.02;1758185;78;20569;-65
